sensor_id;sensor_type;location;lat;lon;timestamp;temperature;humidity
54642;DHT22;40536;53.194;5.728;2022-09-02T00:01:49;15.60;99.90
54642;DHT22;40536;53.194;5.728;2022-09-02T00:04:20;15.50;99.90
54642;DHT22;40536;53.194;5.728;2022-09-02T00:06:47;15.50;99.90
54642;DHT22;40536;53.194;5.728;2022-09-02T00:09:15;15.50;99.90
54642;DHT22;40536;53.194;5.728;2022-09-02T00:11:43;15.50;99.90
54642;DHT22;40536;53.194;5.728;2022-09-02T00:14:13;15.40;99.90
54642;DHT22;40536;53.194;5.728;2022-09-02T00:16:39;15.40;99.90
54642;DHT22;40536;53.194;5.728;2022-09-02T00:19:08;15.30;99.90
54642;DHT22;40536;53.194;5.728;2022-09-02T00:21:35;15.30;99.90
54642;DHT22;40536;53.194;5.728;2022-09-02T00:24:04;15.30;99.90
54642;DHT22;40536;53.194;5.728;2022-09-02T00:26:29;15.20;99.90
54642;DHT22;40536;53.194;5.728;2022-09-02T00:28:55;15.20;99.90
54642;DHT22;40536;53.194;5.728;2022-09-02T00:31:22;15.20;99.90
54642;DHT22;40536;53.194;5.728;2022-09-02T00:33:48;15.20;99.90
54642;DHT22;40536;53.194;5.728;2022-09-02T00:36:15;15.10;99.90
54642;DHT22;40536;53.194;5.728;2022-09-02T00:38:41;15.10;99.90
54642;DHT22;40536;53.194;5.728;2022-09-02T00:41:09;15.10;99.90
54642;DHT22;40536;53.194;5.728;2022-09-02T00:43:55;15.10;99.90
54642;DHT22;40536;53.194;5.728;2022-09-02T00:46:24;15.10;99.90
54642;DHT22;40536;53.194;5.728;2022-09-02T00:49:15;15.00;99.90
54642;DHT22;40536;53.194;5.728;2022-09-02T00:51:46;15.00;99.90
54642;DHT22;40536;53.194;5.728;2022-09-02T00:54:14;14.90;99.90
54642;DHT22;40536;53.194;5.728;2022-09-02T00:56:42;14.90;99.90
54642;DHT22;40536;53.194;5.728;2022-09-02T00:59:23;14.90;99.90
54642;DHT22;40536;53.194;5.728;2022-09-02T01:01:50;14.90;99.90
54642;DHT22;40536;53.194;5.728;2022-09-02T01:04:16;14.90;99.90
54642;DHT22;40536;53.194;5.728;2022-09-02T01:06:42;14.80;99.90
54642;DHT22;40536;53.194;5.728;2022-09-02T01:09:11;14.80;99.90
54642;DHT22;40536;53.194;5.728;2022-09-02T01:11:45;14.80;99.90
54642;DHT22;40536;53.194;5.728;2022-09-02T01:14:13;14.80;99.90
54642;DHT22;40536;53.194;5.728;2022-09-02T01:16:49;14.80;99.90
54642;DHT22;40536;53.194;5.728;2022-09-02T01:19:20;14.80;99.90
54642;DHT22;40536;53.194;5.728;2022-09-02T01:21:49;14.80;99.90
54642;DHT22;40536;53.194;5.728;2022-09-02T01:24:16;14.70;99.90
54642;DHT22;40536;53.194;5.728;2022-09-02T01:26:43;14.70;99.90
54642;DHT22;40536;53.194;5.728;2022-09-02T01:29:09;14.60;99.90
54642;DHT22;40536;53.194;5.728;2022-09-02T01:31:35;14.70;99.90
54642;DHT22;40536;53.194;5.728;2022-09-02T01:34:00;14.70;99.90
54642;DHT22;40536;53.194;5.728;2022-09-02T01:36:26;14.60;99.90
54642;DHT22;40536;53.194;5.728;2022-09-02T01:38:52;14.60;99.90
54642;DHT22;40536;53.194;5.728;2022-09-02T01:41:17;14.60;99.90
54642;DHT22;40536;53.194;5.728;2022-09-02T01:43:43;14.50;99.90
54642;DHT22;40536;53.194;5.728;2022-09-02T01:46:09;14.50;99.90
54642;DHT22;40536;53.194;5.728;2022-09-02T01:48:34;14.50;99.90
54642;DHT22;40536;53.194;5.728;2022-09-02T01:51:02;14.40;99.90
54642;DHT22;40536;53.194;5.728;2022-09-02T01:53:28;14.40;99.90
54642;DHT22;40536;53.194;5.728;2022-09-02T01:55:54;14.40;99.90
54642;DHT22;40536;53.194;5.728;2022-09-02T01:58:20;14.40;99.90
54642;DHT22;40536;53.194;5.728;2022-09-02T02:00:46;14.30;99.90
54642;DHT22;40536;53.194;5.728;2022-09-02T02:03:13;14.30;99.90
54642;DHT22;40536;53.194;5.728;2022-09-02T02:05:39;14.30;99.90
54642;DHT22;40536;53.194;5.728;2022-09-02T02:08:04;14.30;99.90
54642;DHT22;40536;53.194;5.728;2022-09-02T02:10:31;14.30;99.90
54642;DHT22;40536;53.194;5.728;2022-09-02T02:12:56;14.20;99.90
54642;DHT22;40536;53.194;5.728;2022-09-02T02:15:24;14.20;99.90
54642;DHT22;40536;53.194;5.728;2022-09-02T02:17:50;14.20;99.90
54642;DHT22;40536;53.194;5.728;2022-09-02T02:20:18;14.20;99.90
54642;DHT22;40536;53.194;5.728;2022-09-02T02:22:45;14.20;99.90
54642;DHT22;40536;53.194;5.728;2022-09-02T02:25:12;14.20;99.90
54642;DHT22;40536;53.194;5.728;2022-09-02T02:27:40;14.30;99.90
54642;DHT22;40536;53.194;5.728;2022-09-02T02:30:07;14.10;99.90
54642;DHT22;40536;53.194;5.728;2022-09-02T02:32:33;14.00;99.90
54642;DHT22;40536;53.194;5.728;2022-09-02T02:35:00;14.00;99.90
54642;DHT22;40536;53.194;5.728;2022-09-02T02:37:26;14.00;99.90
54642;DHT22;40536;53.194;5.728;2022-09-02T02:39:52;14.00;99.90
54642;DHT22;40536;53.194;5.728;2022-09-02T02:42:17;14.00;99.90
54642;DHT22;40536;53.194;5.728;2022-09-02T02:44:43;14.00;99.90
54642;DHT22;40536;53.194;5.728;2022-09-02T02:47:08;13.90;99.90
54642;DHT22;40536;53.194;5.728;2022-09-02T02:49:39;13.90;99.90
54642;DHT22;40536;53.194;5.728;2022-09-02T02:52:05;13.90;99.90
54642;DHT22;40536;53.194;5.728;2022-09-02T02:54:31;13.90;99.90
54642;DHT22;40536;53.194;5.728;2022-09-02T02:56:57;13.90;99.90
54642;DHT22;40536;53.194;5.728;2022-09-02T02:59:22;13.80;99.90
54642;DHT22;40536;53.194;5.728;2022-09-02T03:01:49;13.90;99.90
54642;DHT22;40536;53.194;5.728;2022-09-02T03:04:15;13.80;99.90
54642;DHT22;40536;53.194;5.728;2022-09-02T03:06:40;14.20;99.90
54642;DHT22;40536;53.194;5.728;2022-09-02T03:09:06;13.70;99.90
54642;DHT22;40536;53.194;5.728;2022-09-02T03:11:32;13.60;99.90
54642;DHT22;40536;53.194;5.728;2022-09-02T03:13:57;13.70;99.90
54642;DHT22;40536;53.194;5.728;2022-09-02T03:16:23;13.70;99.90
54642;DHT22;40536;53.194;5.728;2022-09-02T03:18:49;13.70;99.90
54642;DHT22;40536;53.194;5.728;2022-09-02T03:21:15;14.00;99.90
54642;DHT22;40536;53.194;5.728;2022-09-02T03:23:43;13.70;99.90
54642;DHT22;40536;53.194;5.728;2022-09-02T03:26:13;13.60;99.90
54642;DHT22;40536;53.194;5.728;2022-09-02T03:28:40;13.70;99.90
54642;DHT22;40536;53.194;5.728;2022-09-02T03:31:06;13.90;99.90
54642;DHT22;40536;53.194;5.728;2022-09-02T03:33:32;13.80;99.90
54642;DHT22;40536;53.194;5.728;2022-09-02T03:35:58;13.80;99.90
54642;DHT22;40536;53.194;5.728;2022-09-02T03:38:25;13.80;99.90
54642;DHT22;40536;53.194;5.728;2022-09-02T03:40:50;13.80;99.90
54642;DHT22;40536;53.194;5.728;2022-09-02T03:43:16;13.80;99.90
54642;DHT22;40536;53.194;5.728;2022-09-02T03:45:41;13.80;99.90
54642;DHT22;40536;53.194;5.728;2022-09-02T03:48:11;14.40;99.90
54642;DHT22;40536;53.194;5.728;2022-09-02T03:50:41;13.80;99.90
54642;DHT22;40536;53.194;5.728;2022-09-02T03:53:08;13.80;99.90
54642;DHT22;40536;53.194;5.728;2022-09-02T03:55:36;13.70;99.90
54642;DHT22;40536;53.194;5.728;2022-09-02T03:58:02;13.70;99.90
54642;DHT22;40536;53.194;5.728;2022-09-02T04:00:28;13.70;99.90
54642;DHT22;40536;53.194;5.728;2022-09-02T04:02:56;13.70;99.90
54642;DHT22;40536;53.194;5.728;2022-09-02T04:05:23;13.60;99.90
54642;DHT22;40536;53.194;5.728;2022-09-02T04:07:49;13.60;99.90
54642;DHT22;40536;53.194;5.728;2022-09-02T04:10:17;13.60;99.90
54642;DHT22;40536;53.194;5.728;2022-09-02T04:12:43;13.50;99.90
54642;DHT22;40536;53.194;5.728;2022-09-02T04:15:10;13.50;99.90
54642;DHT22;40536;53.194;5.728;2022-09-02T04:17:37;13.40;99.90
54642;DHT22;40536;53.194;5.728;2022-09-02T04:20:05;13.80;99.90
54642;DHT22;40536;53.194;5.728;2022-09-02T04:22:32;13.40;99.90
54642;DHT22;40536;53.194;5.728;2022-09-02T04:24:58;13.40;99.90
54642;DHT22;40536;53.194;5.728;2022-09-02T04:27:23;13.60;99.90
54642;DHT22;40536;53.194;5.728;2022-09-02T04:29:49;13.30;99.90
54642;DHT22;40536;53.194;5.728;2022-09-02T04:32:14;13.30;99.90
54642;DHT22;40536;53.194;5.728;2022-09-02T04:34:40;13.60;99.90
54642;DHT22;40536;53.194;5.728;2022-09-02T04:37:06;13.50;99.90
54642;DHT22;40536;53.194;5.728;2022-09-02T04:39:32;13.30;99.90
54642;DHT22;40536;53.194;5.728;2022-09-02T04:41:57;13.20;99.90
54642;DHT22;40536;53.194;5.728;2022-09-02T04:44:23;13.20;99.90
54642;DHT22;40536;53.194;5.728;2022-09-02T04:46:50;13.20;99.90
54642;DHT22;40536;53.194;5.728;2022-09-02T04:49:16;13.20;99.90
54642;DHT22;40536;53.194;5.728;2022-09-02T04:51:42;13.20;99.90
54642;DHT22;40536;53.194;5.728;2022-09-02T04:54:07;13.20;99.90
54642;DHT22;40536;53.194;5.728;2022-09-02T04:56:33;13.20;99.90
54642;DHT22;40536;53.194;5.728;2022-09-02T04:58:59;13.20;99.90
54642;DHT22;40536;53.194;5.728;2022-09-02T05:01:29;13.20;99.90
54642;DHT22;40536;53.194;5.728;2022-09-02T05:03:56;13.30;99.90
54642;DHT22;40536;53.194;5.728;2022-09-02T05:06:25;13.20;99.90
54642;DHT22;40536;53.194;5.728;2022-09-02T05:08:52;13.20;99.90
54642;DHT22;40536;53.194;5.728;2022-09-02T05:11:21;13.20;99.90
54642;DHT22;40536;53.194;5.728;2022-09-02T05:13:49;13.20;99.90
54642;DHT22;40536;53.194;5.728;2022-09-02T05:16:20;13.50;99.90
54642;DHT22;40536;53.194;5.728;2022-09-02T05:18:46;13.20;99.90
54642;DHT22;40536;53.194;5.728;2022-09-02T05:21:12;13.20;99.90
54642;DHT22;40536;53.194;5.728;2022-09-02T05:23:38;13.30;99.90
54642;DHT22;40536;53.194;5.728;2022-09-02T05:26:05;13.30;99.90
54642;DHT22;40536;53.194;5.728;2022-09-02T05:28:31;13.30;99.90
54642;DHT22;40536;53.194;5.728;2022-09-02T05:31:02;13.40;99.90
54642;DHT22;40536;53.194;5.728;2022-09-02T05:33:31;13.50;99.90
54642;DHT22;40536;53.194;5.728;2022-09-02T05:35:56;13.60;99.90
54642;DHT22;40536;53.194;5.728;2022-09-02T05:38:22;13.70;99.90
54642;DHT22;40536;53.194;5.728;2022-09-02T05:40:49;14.00;99.90
54642;DHT22;40536;53.194;5.728;2022-09-02T05:43:15;14.00;99.90
54642;DHT22;40536;53.194;5.728;2022-09-02T05:45:41;14.10;99.90
54642;DHT22;40536;53.194;5.728;2022-09-02T05:48:07;14.30;99.90
54642;DHT22;40536;53.194;5.728;2022-09-02T05:50:51;14.40;99.90
54642;DHT22;40536;53.194;5.728;2022-09-02T05:53:17;14.60;99.90
54642;DHT22;40536;53.194;5.728;2022-09-02T05:55:43;14.70;99.90
54642;DHT22;40536;53.194;5.728;2022-09-02T05:58:08;14.80;99.90
54642;DHT22;40536;53.194;5.728;2022-09-02T06:00:34;15.00;99.90
54642;DHT22;40536;53.194;5.728;2022-09-02T06:02:59;15.10;99.90
54642;DHT22;40536;53.194;5.728;2022-09-02T06:05:25;15.30;99.90
54642;DHT22;40536;53.194;5.728;2022-09-02T06:07:51;15.50;99.90
54642;DHT22;40536;53.194;5.728;2022-09-02T06:10:17;15.70;99.90
54642;DHT22;40536;53.194;5.728;2022-09-02T06:12:43;15.80;99.90
54642;DHT22;40536;53.194;5.728;2022-09-02T06:15:09;16.10;99.90
54642;DHT22;40536;53.194;5.728;2022-09-02T06:17:35;16.30;99.90
54642;DHT22;40536;53.194;5.728;2022-09-02T06:20:02;16.50;99.90
54642;DHT22;40536;53.194;5.728;2022-09-02T06:22:28;16.70;99.90
54642;DHT22;40536;53.194;5.728;2022-09-02T06:24:53;16.90;99.90
54642;DHT22;40536;53.194;5.728;2022-09-02T06:27:19;17.20;99.90
54642;DHT22;40536;53.194;5.728;2022-09-02T06:29:45;17.40;99.90
54642;DHT22;40536;53.194;5.728;2022-09-02T06:32:11;17.70;99.90
54642;DHT22;40536;53.194;5.728;2022-09-02T06:34:36;17.90;99.90
54642;DHT22;40536;53.194;5.728;2022-09-02T06:37:03;18.10;99.90
54642;DHT22;40536;53.194;5.728;2022-09-02T06:39:29;18.30;99.90
54642;DHT22;40536;53.194;5.728;2022-09-02T06:41:55;18.50;99.90
54642;DHT22;40536;53.194;5.728;2022-09-02T06:44:20;18.70;99.90
54642;DHT22;40536;53.194;5.728;2022-09-02T06:46:52;18.90;99.90
54642;DHT22;40536;53.194;5.728;2022-09-02T06:49:18;19.10;99.90
54642;DHT22;40536;53.194;5.728;2022-09-02T06:51:45;19.20;99.90
54642;DHT22;40536;53.194;5.728;2022-09-02T06:54:14;19.30;99.90
54642;DHT22;40536;53.194;5.728;2022-09-02T06:56:41;19.50;99.90
54642;DHT22;40536;53.194;5.728;2022-09-02T06:59:08;19.70;99.90
54642;DHT22;40536;53.194;5.728;2022-09-02T07:01:35;20.00;99.90
54642;DHT22;40536;53.194;5.728;2022-09-02T07:04:01;20.20;99.90
54642;DHT22;40536;53.194;5.728;2022-09-02T07:06:49;20.40;99.90
54642;DHT22;40536;53.194;5.728;2022-09-02T07:09:19;20.60;99.90
54642;DHT22;40536;53.194;5.728;2022-09-02T07:11:46;20.60;99.80
54642;DHT22;40536;53.194;5.728;2022-09-02T07:14:14;20.80;99.90
54642;DHT22;40536;53.194;5.728;2022-09-02T07:16:45;21.10;99.90
54642;DHT22;40536;53.194;5.728;2022-09-02T07:19:11;21.20;99.60
54642;DHT22;40536;53.194;5.728;2022-09-02T07:21:38;21.50;99.80
54642;DHT22;40536;53.194;5.728;2022-09-02T07:24:06;21.80;99.40
54642;DHT22;40536;53.194;5.728;2022-09-02T07:26:32;22.10;99.20
54642;DHT22;40536;53.194;5.728;2022-09-02T07:28:58;22.40;99.00
54642;DHT22;40536;53.194;5.728;2022-09-02T07:31:24;22.80;98.50
54642;DHT22;40536;53.194;5.728;2022-09-02T07:33:52;23.10;98.20
54642;DHT22;40536;53.194;5.728;2022-09-02T07:36:17;23.30;96.60
54642;DHT22;40536;53.194;5.728;2022-09-02T07:38:46;23.50;97.50
54642;DHT22;40536;53.194;5.728;2022-09-02T07:41:12;23.80;97.50
54642;DHT22;40536;53.194;5.728;2022-09-02T07:43:38;24.10;97.10
54642;DHT22;40536;53.194;5.728;2022-09-02T07:46:05;24.50;96.70
54642;DHT22;40536;53.194;5.728;2022-09-02T07:48:32;24.70;96.30
54642;DHT22;40536;53.194;5.728;2022-09-02T07:50:58;24.90;95.90
54642;DHT22;40536;53.194;5.728;2022-09-02T07:53:24;25.10;95.00
54642;DHT22;40536;53.194;5.728;2022-09-02T07:55:50;25.30;95.00
54642;DHT22;40536;53.194;5.728;2022-09-02T07:58:17;25.40;94.60
54642;DHT22;40536;53.194;5.728;2022-09-02T08:00:45;25.30;94.50
54642;DHT22;40536;53.194;5.728;2022-09-02T08:03:12;25.30;94.20
54642;DHT22;40536;53.194;5.728;2022-09-02T08:05:38;25.40;94.50
54642;DHT22;40536;53.194;5.728;2022-09-02T08:08:04;25.40;93.30
54642;DHT22;40536;53.194;5.728;2022-09-02T08:10:31;25.40;93.40
54642;DHT22;40536;53.194;5.728;2022-09-02T08:12:58;25.30;93.90
54642;DHT22;40536;53.194;5.728;2022-09-02T08:15:25;25.20;94.10
54642;DHT22;40536;53.194;5.728;2022-09-02T08:17:54;25.20;93.30
54642;DHT22;40536;53.194;5.728;2022-09-02T08:20:20;25.20;93.90
54642;DHT22;40536;53.194;5.728;2022-09-02T08:22:46;25.50;93.90
54642;DHT22;40536;53.194;5.728;2022-09-02T08:25:11;25.80;93.70
54642;DHT22;40536;53.194;5.728;2022-09-02T08:27:37;25.80;92.90
54642;DHT22;40536;53.194;5.728;2022-09-02T08:30:05;25.90;92.60
54642;DHT22;40536;53.194;5.728;2022-09-02T08:32:35;25.90;93.70
54642;DHT22;40536;53.194;5.728;2022-09-02T08:35:01;26.00;93.40
54642;DHT22;40536;53.194;5.728;2022-09-02T08:37:29;26.00;93.50
54642;DHT22;40536;53.194;5.728;2022-09-02T08:39:57;26.00;92.80
54642;DHT22;40536;53.194;5.728;2022-09-02T08:45:36;26.00;92.60
54642;DHT22;40536;53.194;5.728;2022-09-02T08:50:59;26.30;92.50
54642;DHT22;40536;53.194;5.728;2022-09-02T08:53:39;26.60;93.30
54642;DHT22;40536;53.194;5.728;2022-09-02T08:56:09;26.90;92.00
54642;DHT22;40536;53.194;5.728;2022-09-02T08:58:40;26.90;92.20
54642;DHT22;40536;53.194;5.728;2022-09-02T09:18:00;27.20;90.30
54642;DHT22;40536;53.194;5.728;2022-09-02T09:20:37;27.00;90.40
54642;DHT22;40536;53.194;5.728;2022-09-02T09:25:52;27.60;90.40
54642;DHT22;40536;53.194;5.728;2022-09-02T09:28:20;28.00;90.70
54642;DHT22;40536;53.194;5.728;2022-09-02T09:30:46;28.40;90.90
54642;DHT22;40536;53.194;5.728;2022-09-02T09:33:15;28.60;90.60
54642;DHT22;40536;53.194;5.728;2022-09-02T09:35:51;28.60;89.30
54642;DHT22;40536;53.194;5.728;2022-09-02T09:38:28;28.40;88.90
54642;DHT22;40536;53.194;5.728;2022-09-02T09:41:15;28.20;89.30
54642;DHT22;40536;53.194;5.728;2022-09-02T09:43:42;28.30;88.10
54642;DHT22;40536;53.194;5.728;2022-09-02T09:46:28;28.60;89.70
54642;DHT22;40536;53.194;5.728;2022-09-02T09:48:56;28.70;87.10
54642;DHT22;40536;53.194;5.728;2022-09-02T09:51:22;28.70;88.60
54642;DHT22;40536;53.194;5.728;2022-09-02T09:53:48;28.90;87.40
54642;DHT22;40536;53.194;5.728;2022-09-02T10:06:24;29.10;84.60
54642;DHT22;40536;53.194;5.728;2022-09-02T10:09:30;28.80;84.90
54642;DHT22;40536;53.194;5.728;2022-09-02T10:12:11;28.60;85.80
54642;DHT22;40536;53.194;5.728;2022-09-02T10:14:39;28.80;85.60
54642;DHT22;40536;53.194;5.728;2022-09-02T10:25:44;29.10;85.40
54642;DHT22;40536;53.194;5.728;2022-09-02T10:31:36;28.80;83.30
54642;DHT22;40536;53.194;5.728;2022-09-02T10:34:33;28.70;84.80
54642;DHT22;40536;53.194;5.728;2022-09-02T10:37:22;28.80;82.60
54642;DHT22;40536;53.194;5.728;2022-09-02T10:40:08;28.60;83.10
54642;DHT22;40536;53.194;5.728;2022-09-02T10:42:42;28.60;83.50
54642;DHT22;40536;53.194;5.728;2022-09-02T10:47:36;28.50;82.80
54642;DHT22;40536;53.194;5.728;2022-09-02T10:50:19;28.30;83.80
54642;DHT22;40536;53.194;5.728;2022-09-02T10:55:55;28.60;83.80
54642;DHT22;40536;53.194;5.728;2022-09-02T11:01:17;28.60;82.70
54642;DHT22;40536;53.194;5.728;2022-09-02T11:03:57;28.70;82.10
54642;DHT22;40536;53.194;5.728;2022-09-02T11:06:34;28.80;82.80
54642;DHT22;40536;53.194;5.728;2022-09-02T11:09:19;28.80;81.90
54642;DHT22;40536;53.194;5.728;2022-09-02T11:12:09;29.00;83.20
54642;DHT22;40536;53.194;5.728;2022-09-02T11:17:35;29.80;81.60
54642;DHT22;40536;53.194;5.728;2022-09-02T11:20:44;30.00;79.90
54642;DHT22;40536;53.194;5.728;2022-09-02T11:31:18;30.50;80.30
54642;DHT22;40536;53.194;5.728;2022-09-02T11:33:57;30.70;80.80
54642;DHT22;40536;53.194;5.728;2022-09-02T11:36:25;30.60;79.30
54642;DHT22;40536;53.194;5.728;2022-09-02T11:39:06;30.40;79.90
54642;DHT22;40536;53.194;5.728;2022-09-02T11:42:02;30.20;79.10
54642;DHT22;40536;53.194;5.728;2022-09-02T11:45:05;30.20;79.60
54642;DHT22;40536;53.194;5.728;2022-09-02T11:47:44;30.20;79.30
54642;DHT22;40536;53.194;5.728;2022-09-02T11:53:29;30.00;79.40
54642;DHT22;40536;53.194;5.728;2022-09-02T11:58:50;29.90;78.00
54642;DHT22;40536;53.194;5.728;2022-09-02T12:01:46;29.80;79.40
54642;DHT22;40536;53.194;5.728;2022-09-02T12:09:47;29.80;79.60
54642;DHT22;40536;53.194;5.728;2022-09-02T12:20:08;29.60;77.80
54642;DHT22;40536;53.194;5.728;2022-09-02T12:22:36;29.40;78.30
54642;DHT22;40536;53.194;5.728;2022-09-02T12:28:22;29.00;78.10
54642;DHT22;40536;53.194;5.728;2022-09-02T12:33:32;28.90;78.90
54642;DHT22;40536;53.194;5.728;2022-09-02T12:35:58;28.80;78.20
54642;DHT22;40536;53.194;5.728;2022-09-02T12:38:37;28.60;78.20
54642;DHT22;40536;53.194;5.728;2022-09-02T12:46:35;28.40;78.80
54642;DHT22;40536;53.194;5.728;2022-09-02T12:54:46;28.20;79.50
54642;DHT22;40536;53.194;5.728;2022-09-02T12:57:17;28.30;78.60
54642;DHT22;40536;53.194;5.728;2022-09-02T12:59:45;28.30;79.70
54642;DHT22;40536;53.194;5.728;2022-09-02T13:08:31;28.20;78.90
54642;DHT22;40536;53.194;5.728;2022-09-02T13:11:02;28.40;79.50
54642;DHT22;40536;53.194;5.728;2022-09-02T13:16:20;28.30;78.80
54642;DHT22;40536;53.194;5.728;2022-09-02T13:24:45;28.30;79.20
54642;DHT22;40536;53.194;5.728;2022-09-02T13:32:28;28.60;77.50
54642;DHT22;40536;53.194;5.728;2022-09-02T13:34:56;28.50;77.80
54642;DHT22;40536;53.194;5.728;2022-09-02T13:37:33;28.40;78.30
54642;DHT22;40536;53.194;5.728;2022-09-02T13:40:16;28.60;79.00
54642;DHT22;40536;53.194;5.728;2022-09-02T13:42:50;28.60;77.90
54642;DHT22;40536;53.194;5.728;2022-09-02T13:45:18;28.60;77.30
54642;DHT22;40536;53.194;5.728;2022-09-02T13:47:46;28.40;77.60
54642;DHT22;40536;53.194;5.728;2022-09-02T13:50:16;28.40;78.30
54642;DHT22;40536;53.194;5.728;2022-09-02T13:52:44;28.50;78.40
54642;DHT22;40536;53.194;5.728;2022-09-02T13:55:13;28.50;78.10
54642;DHT22;40536;53.194;5.728;2022-09-02T13:57:43;28.50;78.50
54642;DHT22;40536;53.194;5.728;2022-09-02T14:00:13;28.50;78.20
54642;DHT22;40536;53.194;5.728;2022-09-02T14:02:40;28.60;78.60
54642;DHT22;40536;53.194;5.728;2022-09-02T14:05:21;28.50;78.10
54642;DHT22;40536;53.194;5.728;2022-09-02T14:07:51;28.40;78.00
54642;DHT22;40536;53.194;5.728;2022-09-02T14:10:21;28.50;78.70
54642;DHT22;40536;53.194;5.728;2022-09-02T14:12:47;28.60;77.60
54642;DHT22;40536;53.194;5.728;2022-09-02T14:15:16;28.60;77.70
54642;DHT22;40536;53.194;5.728;2022-09-02T14:20:35;28.70;76.50
54642;DHT22;40536;53.194;5.728;2022-09-02T14:23:01;28.70;77.60
54642;DHT22;40536;53.194;5.728;2022-09-02T14:25:34;28.80;77.90
54642;DHT22;40536;53.194;5.728;2022-09-02T14:28:02;28.80;76.40
54642;DHT22;40536;53.194;5.728;2022-09-02T14:30:35;28.70;77.20
54642;DHT22;40536;53.194;5.728;2022-09-02T14:36:00;28.50;77.70
54642;DHT22;40536;53.194;5.728;2022-09-02T14:38:30;28.50;76.60
54642;DHT22;40536;53.194;5.728;2022-09-02T14:41:23;28.60;77.60
54642;DHT22;40536;53.194;5.728;2022-09-02T14:43:56;28.50;77.40
54642;DHT22;40536;53.194;5.728;2022-09-02T14:49:03;28.30;77.50
54642;DHT22;40536;53.194;5.728;2022-09-02T14:51:36;28.30;77.40
54642;DHT22;40536;53.194;5.728;2022-09-02T14:54:03;28.20;77.30
54642;DHT22;40536;53.194;5.728;2022-09-02T14:56:51;28.20;77.40
54642;DHT22;40536;53.194;5.728;2022-09-02T14:59:18;28.20;76.20
54642;DHT22;40536;53.194;5.728;2022-09-02T15:01:49;28.10;77.00
54642;DHT22;40536;53.194;5.728;2022-09-02T15:04:16;28.10;76.30
54642;DHT22;40536;53.194;5.728;2022-09-02T15:06:44;28.00;77.20
54642;DHT22;40536;53.194;5.728;2022-09-02T15:09:10;28.00;76.90
54642;DHT22;40536;53.194;5.728;2022-09-02T15:11:37;28.00;77.30
54642;DHT22;40536;53.194;5.728;2022-09-02T15:14:04;28.00;77.10
54642;DHT22;40536;53.194;5.728;2022-09-02T15:16:29;28.00;77.70
54642;DHT22;40536;53.194;5.728;2022-09-02T15:18:55;28.00;77.20
54642;DHT22;40536;53.194;5.728;2022-09-02T15:21:21;28.00;78.10
54642;DHT22;40536;53.194;5.728;2022-09-02T15:23:46;28.10;78.10
54642;DHT22;40536;53.194;5.728;2022-09-02T15:26:14;28.10;77.80
54642;DHT22;40536;53.194;5.728;2022-09-02T15:28:40;28.10;78.00
54642;DHT22;40536;53.194;5.728;2022-09-02T15:31:06;28.20;77.50
54642;DHT22;40536;53.194;5.728;2022-09-02T15:33:32;28.10;77.40
54642;DHT22;40536;53.194;5.728;2022-09-02T15:36:09;28.00;77.20
54642;DHT22;40536;53.194;5.728;2022-09-02T15:38:37;27.90;77.10
54642;DHT22;40536;53.194;5.728;2022-09-02T15:41:23;27.80;77.50
54642;DHT22;40536;53.194;5.728;2022-09-02T15:43:49;27.80;77.70
54642;DHT22;40536;53.194;5.728;2022-09-02T15:46:35;27.60;77.40
54642;DHT22;40536;53.194;5.728;2022-09-02T15:49:13;27.40;76.90
54642;DHT22;40536;53.194;5.728;2022-09-02T15:51:42;27.40;77.80
54642;DHT22;40536;53.194;5.728;2022-09-02T15:54:10;27.30;77.70
54642;DHT22;40536;53.194;5.728;2022-09-02T15:56:37;27.20;77.80
54642;DHT22;40536;53.194;5.728;2022-09-02T15:59:13;27.30;78.20
54642;DHT22;40536;53.194;5.728;2022-09-02T16:01:45;27.30;78.40
54642;DHT22;40536;53.194;5.728;2022-09-02T16:04:12;27.30;78.60
54642;DHT22;40536;53.194;5.728;2022-09-02T16:06:40;27.40;78.50
54642;DHT22;40536;53.194;5.728;2022-09-02T16:09:09;27.40;77.90
54642;DHT22;40536;53.194;5.728;2022-09-02T16:11:44;27.50;78.30
54642;DHT22;40536;53.194;5.728;2022-09-02T16:14:10;27.30;78.40
54642;DHT22;40536;53.194;5.728;2022-09-02T16:16:36;27.20;78.10
54642;DHT22;40536;53.194;5.728;2022-09-02T16:19:04;27.20;78.40
54642;DHT22;40536;53.194;5.728;2022-09-02T16:21:29;27.10;76.40
54642;DHT22;40536;53.194;5.728;2022-09-02T16:23:55;27.00;77.70
54642;DHT22;40536;53.194;5.728;2022-09-02T16:26:26;27.00;78.00
54642;DHT22;40536;53.194;5.728;2022-09-02T16:29:04;27.00;78.00
54642;DHT22;40536;53.194;5.728;2022-09-02T16:31:32;26.90;77.50
54642;DHT22;40536;53.194;5.728;2022-09-02T16:36:25;26.80;78.20
54642;DHT22;40536;53.194;5.728;2022-09-02T16:38:51;26.80;78.10
54642;DHT22;40536;53.194;5.728;2022-09-02T16:41:36;26.70;77.80
54642;DHT22;40536;53.194;5.728;2022-09-02T16:44:04;26.50;77.00
54642;DHT22;40536;53.194;5.728;2022-09-02T16:46:31;26.30;77.90
54642;DHT22;40536;53.194;5.728;2022-09-02T16:48:58;26.30;78.20
54642;DHT22;40536;53.194;5.728;2022-09-02T16:51:24;26.10;77.50
54642;DHT22;40536;53.194;5.728;2022-09-02T16:53:55;26.00;77.50
54642;DHT22;40536;53.194;5.728;2022-09-02T16:56:21;25.90;78.20
54642;DHT22;40536;53.194;5.728;2022-09-02T16:58:48;25.80;78.30
54642;DHT22;40536;53.194;5.728;2022-09-02T17:01:14;25.70;78.70
54642;DHT22;40536;53.194;5.728;2022-09-02T17:03:40;25.60;78.90
54642;DHT22;40536;53.194;5.728;2022-09-02T17:06:07;25.50;78.90
54642;DHT22;40536;53.194;5.728;2022-09-02T17:08:33;25.30;78.80
54642;DHT22;40536;53.194;5.728;2022-09-02T17:11:32;25.10;79.00
54642;DHT22;40536;53.194;5.728;2022-09-02T17:14:07;24.80;80.20
54642;DHT22;40536;53.194;5.728;2022-09-02T17:16:39;24.60;80.20
54642;DHT22;40536;53.194;5.728;2022-09-02T17:19:05;24.40;80.50
54642;DHT22;40536;53.194;5.728;2022-09-02T17:21:41;24.30;80.70
54642;DHT22;40536;53.194;5.728;2022-09-02T17:24:08;24.20;80.80
54642;DHT22;40536;53.194;5.728;2022-09-02T17:26:36;24.00;80.50
54642;DHT22;40536;53.194;5.728;2022-09-02T17:29:09;23.90;80.50
54642;DHT22;40536;53.194;5.728;2022-09-02T17:31:35;23.80;81.20
54642;DHT22;40536;53.194;5.728;2022-09-02T17:34:04;23.70;81.40
54642;DHT22;40536;53.194;5.728;2022-09-02T17:36:32;23.60;81.80
54642;DHT22;40536;53.194;5.728;2022-09-02T17:39:00;23.50;82.00
54642;DHT22;40536;53.194;5.728;2022-09-02T17:41:26;23.40;82.10
54642;DHT22;40536;53.194;5.728;2022-09-02T17:44:11;23.40;82.50
54642;DHT22;40536;53.194;5.728;2022-09-02T17:46:39;23.20;82.70
54642;DHT22;40536;53.194;5.728;2022-09-02T17:49:05;23.10;83.30
54642;DHT22;40536;53.194;5.728;2022-09-02T17:51:32;23.00;83.10
54642;DHT22;40536;53.194;5.728;2022-09-02T17:53:57;22.90;84.10
54642;DHT22;40536;53.194;5.728;2022-09-02T17:56:31;22.80;83.80
54642;DHT22;40536;53.194;5.728;2022-09-02T18:01:36;22.50;84.40